Airfield :







YOU CAN JOIN US ON...

 
LOGIN :

Register | Disclaimer

   EN    FR    IT 

 









Legend :    VFR   Marginal VFR   IFR   Intensive IFR   Very Intensive IFR
Visi :
Ceiling :
>= 8 km
>= 3000ft
5 to 8 km
1000 to 3000 ft
1500m to 5 km
500 to 1000 ft
800 to 1500m
200 to 500 ft
< 800m
< 200 ft
Symbols :   Thunderstorms  Fog  Heavy snow  Heavy precipitations  Wind > 20 kt






- Airport Elevation : 266 ft
- IATA code : MHT


KMHT - Manchester

CURRENT METAR :
  • 220206Z 19010KT 10SM BKN026 BKN250 26/19 A2959 RMK AO2 T02610194

EXPIRED METARs :
  • 220153Z 19011KT 10SM SCT027 BKN250 26/19 A2958 RMK AO2 SLP023 T02610194
  • 220053Z 19008KT 10SM FEW030 FEW250 27/20 A2957 RMK AO2 SLP021 T02670200
  • 212353Z 21010KT 10SM FEW030 SCT250 27/19 A2958 RMK AO2 PRESRR SLP024 T02720194 10328 20272 53006

TAF KMHT
Valid from the 22 at 00:00 until the 23 at 00:00 UTC


212320Z 2200/2224 19010KT P6SM SCT100
FM220300 18005KT P6SM BKN050
FM221400 29006KT P6SM BKN050
KZBW FIR / North America



MET'MAP, your aeronautical weather chart ! - Copyright ORBIFLY December 2007 - Disclaimer

ORBIFLY MET'MAP TEAM :

Programming & Development : Alexandra Zaïnal
Concept & original design : Baudouin d'Aumeries
Assistance for programming : Marc-Olivier Méhu
Technical & hardware support : Manuel Goepfert

Contact : metmap@orbifly.com




SOURCES & CREDITS :

   NOAA